sensor_id;sensor_type;location;lat;lon;timestamp;P1;durP1;ratioP1;P2;durP2;ratioP2
16954;SDS011;8594;52.052;8.354;2023-03-03T00:00:08;51.23;;;18.80;;
16954;SDS011;8594;52.052;8.354;2023-03-03T00:02:36;51.90;;;20.30;;
16954;SDS011;8594;52.052;8.354;2023-03-03T00:05:03;47.43;;;18.20;;
16954;SDS011;8594;52.052;8.354;2023-03-03T00:07:31;44.17;;;19.00;;
16954;SDS011;8594;52.052;8.354;2023-03-03T00:09:58;45.47;;;17.87;;
16954;SDS011;8594;52.052;8.354;2023-03-03T00:12:26;48.10;;;18.50;;
16954;SDS011;8594;52.052;8.354;2023-03-03T00:14:55;48.33;;;18.87;;
16954;SDS011;8594;52.052;8.354;2023-03-03T00:17:25;47.00;;;19.57;;
16954;SDS011;8594;52.052;8.354;2023-03-03T00:19:54;50.80;;;20.00;;
16954;SDS011;8594;52.052;8.354;2023-03-03T00:22:25;46.67;;;18.30;;
16954;SDS011;8594;52.052;8.354;2023-03-03T00:24:57;45.30;;;17.93;;
16954;SDS011;8594;52.052;8.354;2023-03-03T00:27:27;46.77;;;19.63;;
16954;SDS011;8594;52.052;8.354;2023-03-03T00:30:00;44.90;;;18.50;;
16954;SDS011;8594;52.052;8.354;2023-03-03T00:32:29;43.30;;;18.30;;
16954;SDS011;8594;52.052;8.354;2023-03-03T00:35:16;41.83;;;19.53;;
16954;SDS011;8594;52.052;8.354;2023-03-03T00:37:50;42.90;;;18.40;;
16954;SDS011;8594;52.052;8.354;2023-03-03T00:40:22;43.93;;;17.90;;
16954;SDS011;8594;52.052;8.354;2023-03-03T00:42:51;45.77;;;18.73;;
16954;SDS011;8594;52.052;8.354;2023-03-03T00:45:25;45.83;;;18.43;;
16954;SDS011;8594;52.052;8.354;2023-03-03T00:48:06;40.43;;;17.83;;
16954;SDS011;8594;52.052;8.354;2023-03-03T00:50:46;45.53;;;18.77;;
16954;SDS011;8594;52.052;8.354;2023-03-03T00:53:13;43.37;;;17.60;;
16954;SDS011;8594;52.052;8.354;2023-03-03T00:55:42;45.73;;;17.87;;
16954;SDS011;8594;52.052;8.354;2023-03-03T00:58:10;41.27;;;17.43;;
16954;SDS011;8594;52.052;8.354;2023-03-03T01:00:38;43.53;;;18.70;;
16954;SDS011;8594;52.052;8.354;2023-03-03T01:03:08;45.03;;;18.07;;
16954;SDS011;8594;52.052;8.354;2023-03-03T01:05:43;48.60;;;19.43;;
16954;SDS011;8594;52.052;8.354;2023-03-03T01:08:10;50.57;;;20.10;;
16954;SDS011;8594;52.052;8.354;2023-03-03T01:10:38;43.23;;;17.73;;
16954;SDS011;8594;52.052;8.354;2023-03-03T01:13:09;48.97;;;20.07;;
16954;SDS011;8594;52.052;8.354;2023-03-03T01:15:36;48.80;;;19.90;;
16954;SDS011;8594;52.052;8.354;2023-03-03T01:18:05;52.13;;;18.93;;
16954;SDS011;8594;52.052;8.354;2023-03-03T01:20:34;56.43;;;20.77;;
16954;SDS011;8594;52.052;8.354;2023-03-03T01:23:01;63.10;;;21.40;;
16954;SDS011;8594;52.052;8.354;2023-03-03T01:25:28;50.50;;;19.10;;
16954;SDS011;8594;52.052;8.354;2023-03-03T01:27:55;50.43;;;20.13;;
16954;SDS011;8594;52.052;8.354;2023-03-03T01:30:22;51.80;;;18.60;;
16954;SDS011;8594;52.052;8.354;2023-03-03T01:32:50;54.47;;;20.60;;
16954;SDS011;8594;52.052;8.354;2023-03-03T01:35:19;48.43;;;20.43;;
16954;SDS011;8594;52.052;8.354;2023-03-03T01:37:46;51.63;;;19.97;;
16954;SDS011;8594;52.052;8.354;2023-03-03T01:40:14;44.90;;;17.97;;
16954;SDS011;8594;52.052;8.354;2023-03-03T01:42:44;48.30;;;19.03;;
16954;SDS011;8594;52.052;8.354;2023-03-03T01:45:12;50.37;;;20.00;;
16954;SDS011;8594;52.052;8.354;2023-03-03T01:47:47;53.30;;;20.43;;
16954;SDS011;8594;52.052;8.354;2023-03-03T01:50:29;53.90;;;19.30;;
16954;SDS011;8594;52.052;8.354;2023-03-03T01:53:04;50.97;;;19.87;;
16954;SDS011;8594;52.052;8.354;2023-03-03T01:55:37;57.27;;;20.13;;
16954;SDS011;8594;52.052;8.354;2023-03-03T01:58:08;56.30;;;19.40;;
16954;SDS011;8594;52.052;8.354;2023-03-03T02:00:41;64.57;;;21.87;;
16954;SDS011;8594;52.052;8.354;2023-03-03T02:03:15;67.30;;;22.50;;
16954;SDS011;8594;52.052;8.354;2023-03-03T02:05:46;72.63;;;22.40;;
16954;SDS011;8594;52.052;8.354;2023-03-03T02:08:14;73.87;;;24.60;;
16954;SDS011;8594;52.052;8.354;2023-03-03T02:10:47;73.07;;;24.30;;
16954;SDS011;8594;52.052;8.354;2023-03-03T02:13:15;69.03;;;23.27;;
16954;SDS011;8594;52.052;8.354;2023-03-03T02:15:42;73.63;;;24.23;;
16954;SDS011;8594;52.052;8.354;2023-03-03T02:18:09;71.57;;;23.43;;
16954;SDS011;8594;52.052;8.354;2023-03-03T02:20:48;76.57;;;24.33;;
16954;SDS011;8594;52.052;8.354;2023-03-03T02:23:23;69.67;;;23.07;;
16954;SDS011;8594;52.052;8.354;2023-03-03T02:26:02;74.13;;;22.03;;
16954;SDS011;8594;52.052;8.354;2023-03-03T02:28:34;75.87;;;22.90;;
16954;SDS011;8594;52.052;8.354;2023-03-03T02:31:04;80.90;;;24.53;;
16954;SDS011;8594;52.052;8.354;2023-03-03T02:33:34;81.53;;;24.50;;
16954;SDS011;8594;52.052;8.354;2023-03-03T02:36:01;85.00;;;25.50;;
16954;SDS011;8594;52.052;8.354;2023-03-03T02:38:29;76.70;;;24.20;;
16954;SDS011;8594;52.052;8.354;2023-03-03T02:41:08;84.43;;;24.17;;
16954;SDS011;8594;52.052;8.354;2023-03-03T02:43:43;90.37;;;24.93;;
16954;SDS011;8594;52.052;8.354;2023-03-03T02:46:18;80.07;;;24.20;;
16954;SDS011;8594;52.052;8.354;2023-03-03T02:48:45;86.67;;;25.33;;
16954;SDS011;8594;52.052;8.354;2023-03-03T02:51:11;76.03;;;23.23;;
16954;SDS011;8594;52.052;8.354;2023-03-03T02:53:39;76.67;;;22.17;;
16954;SDS011;8594;52.052;8.354;2023-03-03T02:56:07;75.07;;;22.50;;
16954;SDS011;8594;52.052;8.354;2023-03-03T02:58:35;80.87;;;23.33;;
16954;SDS011;8594;52.052;8.354;2023-03-03T03:01:02;68.43;;;20.27;;
16954;SDS011;8594;52.052;8.354;2023-03-03T03:03:30;77.87;;;22.07;;
16954;SDS011;8594;52.052;8.354;2023-03-03T03:05:57;80.87;;;22.23;;
16954;SDS011;8594;52.052;8.354;2023-03-03T03:08:24;80.27;;;23.50;;
16954;SDS011;8594;52.052;8.354;2023-03-03T03:10:51;79.97;;;23.40;;
16954;SDS011;8594;52.052;8.354;2023-03-03T03:13:19;72.63;;;21.67;;
16954;SDS011;8594;52.052;8.354;2023-03-03T03:15:46;72.47;;;20.73;;
16954;SDS011;8594;52.052;8.354;2023-03-03T03:18:13;74.87;;;20.73;;
16954;SDS011;8594;52.052;8.354;2023-03-03T03:20:40;72.10;;;22.97;;
16954;SDS011;8594;52.052;8.354;2023-03-03T03:23:08;81.40;;;23.60;;
16954;SDS011;8594;52.052;8.354;2023-03-03T03:25:36;74.97;;;21.47;;
16954;SDS011;8594;52.052;8.354;2023-03-03T03:28:09;73.77;;;22.37;;
16954;SDS011;8594;52.052;8.354;2023-03-03T03:30:38;74.33;;;21.50;;
16954;SDS011;8594;52.052;8.354;2023-03-03T03:33:05;79.00;;;22.17;;
16954;SDS011;8594;52.052;8.354;2023-03-03T03:35:34;74.00;;;21.80;;
16954;SDS011;8594;52.052;8.354;2023-03-03T03:38:02;75.57;;;21.57;;
16954;SDS011;8594;52.052;8.354;2023-03-03T03:40:29;74.23;;;21.13;;
16954;SDS011;8594;52.052;8.354;2023-03-03T03:42:56;71.70;;;21.43;;
16954;SDS011;8594;52.052;8.354;2023-03-03T03:45:22;80.73;;;22.43;;
16954;SDS011;8594;52.052;8.354;2023-03-03T03:47:50;75.60;;;21.37;;
16954;SDS011;8594;52.052;8.354;2023-03-03T03:50:17;73.53;;;21.10;;
16954;SDS011;8594;52.052;8.354;2023-03-03T03:52:44;62.97;;;20.33;;
16954;SDS011;8594;52.052;8.354;2023-03-03T03:55:12;72.60;;;21.30;;
16954;SDS011;8594;52.052;8.354;2023-03-03T03:57:39;70.60;;;20.33;;
16954;SDS011;8594;52.052;8.354;2023-03-03T04:00:06;63.93;;;19.87;;
16954;SDS011;8594;52.052;8.354;2023-03-03T04:02:35;70.77;;;21.23;;
16954;SDS011;8594;52.052;8.354;2023-03-03T04:05:04;69.63;;;20.57;;
16954;SDS011;8594;52.052;8.354;2023-03-03T04:07:32;66.23;;;19.83;;
16954;SDS011;8594;52.052;8.354;2023-03-03T04:09:59;61.17;;;19.00;;
16954;SDS011;8594;52.052;8.354;2023-03-03T04:12:26;69.53;;;20.50;;
16954;SDS011;8594;52.052;8.354;2023-03-03T04:14:53;62.97;;;20.53;;
16954;SDS011;8594;52.052;8.354;2023-03-03T04:17:20;65.67;;;19.27;;
16954;SDS011;8594;52.052;8.354;2023-03-03T04:19:51;63.97;;;20.87;;
16954;SDS011;8594;52.052;8.354;2023-03-03T04:22:19;69.53;;;20.53;;
16954;SDS011;8594;52.052;8.354;2023-03-03T04:24:46;71.23;;;19.47;;
16954;SDS011;8594;52.052;8.354;2023-03-03T04:27:13;64.63;;;20.83;;
16954;SDS011;8594;52.052;8.354;2023-03-03T04:29:40;67.50;;;19.13;;
16954;SDS011;8594;52.052;8.354;2023-03-03T04:32:07;60.40;;;18.27;;
16954;SDS011;8594;52.052;8.354;2023-03-03T04:34:34;66.23;;;19.37;;
16954;SDS011;8594;52.052;8.354;2023-03-03T04:37:01;62.90;;;17.87;;
16954;SDS011;8594;52.052;8.354;2023-03-03T04:39:29;62.17;;;19.83;;
16954;SDS011;8594;52.052;8.354;2023-03-03T04:41:56;63.10;;;19.20;;
16954;SDS011;8594;52.052;8.354;2023-03-03T04:44:23;67.97;;;20.30;;
16954;SDS011;8594;52.052;8.354;2023-03-03T04:46:50;66.23;;;19.13;;
16954;SDS011;8594;52.052;8.354;2023-03-03T04:49:17;68.23;;;19.43;;
16954;SDS011;8594;52.052;8.354;2023-03-03T04:51:44;74.63;;;20.50;;
16954;SDS011;8594;52.052;8.354;2023-03-03T04:54:11;83.67;;;20.53;;
16954;SDS011;8594;52.052;8.354;2023-03-03T04:56:39;79.33;;;21.03;;
16954;SDS011;8594;52.052;8.354;2023-03-03T04:59:06;79.90;;;20.47;;
16954;SDS011;8594;52.052;8.354;2023-03-03T05:01:33;77.10;;;20.83;;
16954;SDS011;8594;52.052;8.354;2023-03-03T05:03:59;74.30;;;18.97;;
16954;SDS011;8594;52.052;8.354;2023-03-03T05:06:26;81.03;;;21.33;;
16954;SDS011;8594;52.052;8.354;2023-03-03T05:08:53;80.00;;;21.33;;
16954;SDS011;8594;52.052;8.354;2023-03-03T05:11:20;89.90;;;21.50;;
16954;SDS011;8594;52.052;8.354;2023-03-03T05:13:48;81.20;;;19.40;;
16954;SDS011;8594;52.052;8.354;2023-03-03T05:16:15;78.30;;;22.23;;
16954;SDS011;8594;52.052;8.354;2023-03-03T05:18:42;75.97;;;20.03;;
16954;SDS011;8594;52.052;8.354;2023-03-03T05:21:09;77.80;;;19.83;;
16954;SDS011;8594;52.052;8.354;2023-03-03T05:23:36;77.73;;;19.63;;
16954;SDS011;8594;52.052;8.354;2023-03-03T05:26:03;80.40;;;19.67;;
16954;SDS011;8594;52.052;8.354;2023-03-03T05:28:31;75.20;;;20.57;;
16954;SDS011;8594;52.052;8.354;2023-03-03T05:30:59;62.77;;;18.60;;
16954;SDS011;8594;52.052;8.354;2023-03-03T05:33:26;64.23;;;18.73;;
16954;SDS011;8594;52.052;8.354;2023-03-03T05:35:53;74.43;;;20.00;;
16954;SDS011;8594;52.052;8.354;2023-03-03T05:38:22;72.93;;;19.60;;
16954;SDS011;8594;52.052;8.354;2023-03-03T05:40:49;77.13;;;20.97;;
16954;SDS011;8594;52.052;8.354;2023-03-03T05:43:15;69.77;;;20.03;;
16954;SDS011;8594;52.052;8.354;2023-03-03T05:45:43;78.67;;;20.00;;
16954;SDS011;8594;52.052;8.354;2023-03-03T05:48:12;72.20;;;19.80;;
16954;SDS011;8594;52.052;8.354;2023-03-03T05:50:38;67.97;;;19.20;;
16954;SDS011;8594;52.052;8.354;2023-03-03T05:53:05;75.50;;;19.97;;
16954;SDS011;8594;52.052;8.354;2023-03-03T05:55:32;72.43;;;19.60;;
16954;SDS011;8594;52.052;8.354;2023-03-03T05:57:59;82.40;;;20.63;;
16954;SDS011;8594;52.052;8.354;2023-03-03T06:00:26;75.03;;;20.13;;
16954;SDS011;8594;52.052;8.354;2023-03-03T06:02:53;77.67;;;20.43;;
16954;SDS011;8594;52.052;8.354;2023-03-03T06:05:21;82.50;;;19.47;;
16954;SDS011;8594;52.052;8.354;2023-03-03T06:07:48;98.00;;;25.20;;
16954;SDS011;8594;52.052;8.354;2023-03-03T06:10:15;82.67;;;22.17;;
16954;SDS011;8594;52.052;8.354;2023-03-03T06:12:42;82.90;;;22.03;;
16954;SDS011;8594;52.052;8.354;2023-03-03T06:15:09;86.00;;;23.47;;
16954;SDS011;8594;52.052;8.354;2023-03-03T06:17:37;88.27;;;22.13;;
16954;SDS011;8594;52.052;8.354;2023-03-03T06:20:05;87.67;;;21.87;;
16954;SDS011;8594;52.052;8.354;2023-03-03T06:22:34;79.27;;;22.13;;
16954;SDS011;8594;52.052;8.354;2023-03-03T06:25:01;89.33;;;22.40;;
16954;SDS011;8594;52.052;8.354;2023-03-03T06:27:28;83.03;;;22.50;;
16954;SDS011;8594;52.052;8.354;2023-03-03T06:29:55;81.63;;;22.07;;
16954;SDS011;8594;52.052;8.354;2023-03-03T06:32:22;84.23;;;20.07;;
16954;SDS011;8594;52.052;8.354;2023-03-03T06:34:49;73.77;;;22.10;;
16954;SDS011;8594;52.052;8.354;2023-03-03T06:37:16;84.90;;;22.87;;
16954;SDS011;8594;52.052;8.354;2023-03-03T06:39:44;74.77;;;21.77;;
16954;SDS011;8594;52.052;8.354;2023-03-03T06:42:11;86.67;;;21.53;;
16954;SDS011;8594;52.052;8.354;2023-03-03T06:44:38;76.50;;;20.90;;
16954;SDS011;8594;52.052;8.354;2023-03-03T06:47:05;89.27;;;24.37;;
16954;SDS011;8594;52.052;8.354;2023-03-03T06:49:31;93.37;;;23.93;;
16954;SDS011;8594;52.052;8.354;2023-03-03T06:51:58;85.40;;;22.10;;
16954;SDS011;8594;52.052;8.354;2023-03-03T06:54:36;80.90;;;21.43;;
16954;SDS011;8594;52.052;8.354;2023-03-03T06:57:06;85.57;;;24.20;;
16954;SDS011;8594;52.052;8.354;2023-03-03T06:59:42;93.77;;;25.53;;
16954;SDS011;8594;52.052;8.354;2023-03-03T07:02:12;79.27;;;23.60;;
16954;SDS011;8594;52.052;8.354;2023-03-03T07:04:42;78.00;;;22.07;;
16954;SDS011;8594;52.052;8.354;2023-03-03T07:07:14;82.50;;;22.40;;
16954;SDS011;8594;52.052;8.354;2023-03-03T07:09:45;82.50;;;23.13;;
16954;SDS011;8594;52.052;8.354;2023-03-03T07:12:16;82.47;;;21.23;;
16954;SDS011;8594;52.052;8.354;2023-03-03T07:14:46;72.63;;;20.50;;
16954;SDS011;8594;52.052;8.354;2023-03-03T07:17:20;82.70;;;22.77;;
16954;SDS011;8594;52.052;8.354;2023-03-03T07:19:49;80.47;;;21.60;;
16954;SDS011;8594;52.052;8.354;2023-03-03T07:22:17;72.87;;;21.63;;
16954;SDS011;8594;52.052;8.354;2023-03-03T07:24:47;81.10;;;21.83;;
16954;SDS011;8594;52.052;8.354;2023-03-03T07:27:21;83.90;;;22.00;;
16954;SDS011;8594;52.052;8.354;2023-03-03T07:29:51;83.30;;;21.40;;
16954;SDS011;8594;52.052;8.354;2023-03-03T07:32:25;85.30;;;22.73;;
16954;SDS011;8594;52.052;8.354;2023-03-03T07:34:59;85.73;;;22.90;;
16954;SDS011;8594;52.052;8.354;2023-03-03T07:37:28;94.27;;;23.07;;
16954;SDS011;8594;52.052;8.354;2023-03-03T07:40:00;84.30;;;22.40;;
16954;SDS011;8594;52.052;8.354;2023-03-03T07:42:51;74.17;;;20.23;;
16954;SDS011;8594;52.052;8.354;2023-03-03T07:45:23;81.83;;;21.47;;
16954;SDS011;8594;52.052;8.354;2023-03-03T07:47:54;77.47;;;20.27;;
16954;SDS011;8594;52.052;8.354;2023-03-03T07:50:30;91.90;;;21.70;;
16954;SDS011;8594;52.052;8.354;2023-03-03T07:52:59;89.37;;;23.53;;
16954;SDS011;8594;52.052;8.354;2023-03-03T07:55:29;74.57;;;21.47;;
16954;SDS011;8594;52.052;8.354;2023-03-03T07:58:16;81.50;;;24.00;;
16954;SDS011;8594;52.052;8.354;2023-03-03T08:03:56;84.77;;;22.10;;
16954;SDS011;8594;52.052;8.354;2023-03-03T08:09:18;85.07;;;23.57;;
16954;SDS011;8594;52.052;8.354;2023-03-03T08:11:56;93.47;;;23.33;;
16954;SDS011;8594;52.052;8.354;2023-03-03T08:14:38;75.23;;;21.67;;
16954;SDS011;8594;52.052;8.354;2023-03-03T08:17:08;75.30;;;22.30;;
16954;SDS011;8594;52.052;8.354;2023-03-03T08:19:44;85.77;;;21.97;;
16954;SDS011;8594;52.052;8.354;2023-03-03T08:22:12;75.87;;;22.50;;
16954;SDS011;8594;52.052;8.354;2023-03-03T08:24:43;79.00;;;22.67;;
16954;SDS011;8594;52.052;8.354;2023-03-03T08:27:17;73.23;;;19.87;;
16954;SDS011;8594;52.052;8.354;2023-03-03T08:29:45;73.47;;;21.47;;
16954;SDS011;8594;52.052;8.354;2023-03-03T08:32:14;70.10;;;20.37;;
16954;SDS011;8594;52.052;8.354;2023-03-03T08:34:41;70.00;;;20.87;;
16954;SDS011;8594;52.052;8.354;2023-03-03T08:37:07;76.20;;;22.30;;
16954;SDS011;8594;52.052;8.354;2023-03-03T08:39:34;70.03;;;21.63;;
16954;SDS011;8594;52.052;8.354;2023-03-03T08:42:03;73.80;;;21.77;;
16954;SDS011;8594;52.052;8.354;2023-03-03T08:44:29;69.97;;;21.40;;
16954;SDS011;8594;52.052;8.354;2023-03-03T08:46:58;69.07;;;22.40;;
16954;SDS011;8594;52.052;8.354;2023-03-03T08:49:25;78.83;;;21.53;;
16954;SDS011;8594;52.052;8.354;2023-03-03T08:51:51;70.83;;;20.73;;
16954;SDS011;8594;52.052;8.354;2023-03-03T08:54:19;76.50;;;22.27;;
16954;SDS011;8594;52.052;8.354;2023-03-03T08:56:46;82.80;;;24.57;;
16954;SDS011;8594;52.052;8.354;2023-03-03T08:59:13;72.50;;;21.90;;
16954;SDS011;8594;52.052;8.354;2023-03-03T09:01:39;63.53;;;20.17;;
16954;SDS011;8594;52.052;8.354;2023-03-03T09:04:10;65.13;;;19.50;;
16954;SDS011;8594;52.052;8.354;2023-03-03T09:06:37;63.00;;;19.70;;
16954;SDS011;8594;52.052;8.354;2023-03-03T09:09:04;58.40;;;20.60;;
16954;SDS011;8594;52.052;8.354;2023-03-03T09:11:31;67.80;;;20.70;;
16954;SDS011;8594;52.052;8.354;2023-03-03T09:14:01;73.13;;;21.80;;
16954;SDS011;8594;52.052;8.354;2023-03-03T09:16:36;73.33;;;21.00;;
16954;SDS011;8594;52.052;8.354;2023-03-03T09:19:20;64.03;;;19.00;;
16954;SDS011;8594;52.052;8.354;2023-03-03T09:21:51;67.77;;;19.93;;
16954;SDS011;8594;52.052;8.354;2023-03-03T09:24:24;66.60;;;19.97;;
16954;SDS011;8594;52.052;8.354;2023-03-03T09:26:53;59.57;;;18.90;;
16954;SDS011;8594;52.052;8.354;2023-03-03T09:29:24;65.63;;;19.37;;
16954;SDS011;8594;52.052;8.354;2023-03-03T09:31:53;61.13;;;19.77;;
16954;SDS011;8594;52.052;8.354;2023-03-03T09:34:24;61.77;;;20.80;;
16954;SDS011;8594;52.052;8.354;2023-03-03T09:37:13;65.53;;;20.10;;
16954;SDS011;8594;52.052;8.354;2023-03-03T09:39:47;65.57;;;19.87;;
16954;SDS011;8594;52.052;8.354;2023-03-03T09:42:19;64.10;;;20.17;;
16954;SDS011;8594;52.052;8.354;2023-03-03T09:48:17;59.77;;;19.30;;
16954;SDS011;8594;52.052;8.354;2023-03-03T09:51:07;58.47;;;17.50;;
16954;SDS011;8594;52.052;8.354;2023-03-03T09:54:03;53.00;;;18.37;;
16954;SDS011;8594;52.052;8.354;2023-03-03T09:56:50;53.47;;;17.63;;
16954;SDS011;8594;52.052;8.354;2023-03-03T09:59:32;53.23;;;17.53;;
16954;SDS011;8594;52.052;8.354;2023-03-03T10:02:20;56.90;;;18.47;;
16954;SDS011;8594;52.052;8.354;2023-03-03T10:05:11;58.13;;;17.73;;
16954;SDS011;8594;52.052;8.354;2023-03-03T10:07:51;57.07;;;18.23;;
16954;SDS011;8594;52.052;8.354;2023-03-03T10:10:36;51.00;;;17.57;;
16954;SDS011;8594;52.052;8.354;2023-03-03T10:13:24;60.43;;;19.13;;
16954;SDS011;8594;52.052;8.354;2023-03-03T10:16:10;57.10;;;19.40;;
16954;SDS011;8594;52.052;8.354;2023-03-03T10:19:10;63.40;;;19.70;;
16954;SDS011;8594;52.052;8.354;2023-03-03T10:21:59;59.67;;;19.40;;
16954;SDS011;8594;52.052;8.354;2023-03-03T10:24:46;57.47;;;18.97;;
16954;SDS011;8594;52.052;8.354;2023-03-03T10:27:34;57.07;;;18.33;;
16954;SDS011;8594;52.052;8.354;2023-03-03T10:30:19;51.63;;;17.53;;
16954;SDS011;8594;52.052;8.354;2023-03-03T10:32:59;50.30;;;16.33;;
16954;SDS011;8594;52.052;8.354;2023-03-03T10:35:38;60.50;;;18.17;;
16954;SDS011;8594;52.052;8.354;2023-03-03T10:38:30;53.27;;;17.43;;
16954;SDS011;8594;52.052;8.354;2023-03-03T10:41:21;54.07;;;16.97;;
16954;SDS011;8594;52.052;8.354;2023-03-03T10:44:07;47.33;;;15.70;;
16954;SDS011;8594;52.052;8.354;2023-03-03T10:47:04;51.97;;;17.67;;
16954;SDS011;8594;52.052;8.354;2023-03-03T10:49:55;47.20;;;15.60;;
16954;SDS011;8594;52.052;8.354;2023-03-03T10:52:41;43.73;;;14.77;;
16954;SDS011;8594;52.052;8.354;2023-03-03T10:55:16;41.00;;;15.47;;
16954;SDS011;8594;52.052;8.354;2023-03-03T10:58:07;50.07;;;16.40;;
16954;SDS011;8594;52.052;8.354;2023-03-03T11:00:48;50.47;;;16.17;;
16954;SDS011;8594;52.052;8.354;2023-03-03T11:06:51;43.20;;;15.57;;
16954;SDS011;8594;52.052;8.354;2023-03-03T11:09:32;40.93;;;14.37;;
16954;SDS011;8594;52.052;8.354;2023-03-03T11:12:13;43.00;;;14.67;;
16954;SDS011;8594;52.052;8.354;2023-03-03T11:14:58;40.93;;;15.40;;
16954;SDS011;8594;52.052;8.354;2023-03-03T11:17:58;45.83;;;15.00;;
16954;SDS011;8594;52.052;8.354;2023-03-03T11:20:55;45.47;;;15.00;;
16954;SDS011;8594;52.052;8.354;2023-03-03T11:23:38;49.87;;;16.63;;
16954;SDS011;8594;52.052;8.354;2023-03-03T11:26:32;46.50;;;14.43;;
16954;SDS011;8594;52.052;8.354;2023-03-03T11:29:23;45.20;;;14.60;;
16954;SDS011;8594;52.052;8.354;2023-03-03T11:32:10;45.40;;;15.67;;
16954;SDS011;8594;52.052;8.354;2023-03-03T11:34:50;46.70;;;14.90;;
16954;SDS011;8594;52.052;8.354;2023-03-03T11:37:42;41.50;;;14.80;;
16954;SDS011;8594;52.052;8.354;2023-03-03T11:40:19;50.23;;;16.70;;
16954;SDS011;8594;52.052;8.354;2023-03-03T11:42:55;43.47;;;15.03;;
16954;SDS011;8594;52.052;8.354;2023-03-03T11:45:33;39.77;;;13.03;;
16954;SDS011;8594;52.052;8.354;2023-03-03T11:48:10;43.90;;;15.10;;
16954;SDS011;8594;52.052;8.354;2023-03-03T11:50:47;49.73;;;16.67;;
16954;SDS011;8594;52.052;8.354;2023-03-03T11:53:24;40.23;;;15.43;;
16954;SDS011;8594;52.052;8.354;2023-03-03T11:56:08;41.03;;;14.17;;
16954;SDS011;8594;52.052;8.354;2023-03-03T11:58:48;45.27;;;15.77;;
16954;SDS011;8594;52.052;8.354;2023-03-03T12:01:27;43.23;;;15.17;;
16954;SDS011;8594;52.052;8.354;2023-03-03T12:04:02;44.53;;;14.50;;
16954;SDS011;8594;52.052;8.354;2023-03-03T12:06:37;41.17;;;15.63;;
16954;SDS011;8594;52.052;8.354;2023-03-03T12:09:23;40.70;;;14.37;;
16954;SDS011;8594;52.052;8.354;2023-03-03T12:12:02;41.70;;;14.57;;
16954;SDS011;8594;52.052;8.354;2023-03-03T12:17:49;33.70;;;12.93;;
16954;SDS011;8594;52.052;8.354;2023-03-03T12:20:37;37.13;;;13.40;;
16954;SDS011;8594;52.052;8.354;2023-03-03T12:23:17;44.53;;;14.97;;
16954;SDS011;8594;52.052;8.354;2023-03-03T12:26:09;39.97;;;14.67;;
16954;SDS011;8594;52.052;8.354;2023-03-03T12:28:45;32.70;;;12.57;;
16954;SDS011;8594;52.052;8.354;2023-03-03T12:31:22;39.07;;;13.60;;
16954;SDS011;8594;52.052;8.354;2023-03-03T12:34:07;45.93;;;14.97;;
16954;SDS011;8594;52.052;8.354;2023-03-03T12:36:47;37.07;;;13.83;;
16954;SDS011;8594;52.052;8.354;2023-03-03T12:39:36;34.67;;;12.97;;
16954;SDS011;8594;52.052;8.354;2023-03-03T12:42:19;41.73;;;13.47;;
16954;SDS011;8594;52.052;8.354;2023-03-03T12:44:58;37.47;;;13.33;;
16954;SDS011;8594;52.052;8.354;2023-03-03T12:47:38;35.13;;;13.47;;
16954;SDS011;8594;52.052;8.354;2023-03-03T12:50:22;42.00;;;13.73;;
16954;SDS011;8594;52.052;8.354;2023-03-03T12:53:04;34.30;;;13.57;;
16954;SDS011;8594;52.052;8.354;2023-03-03T12:55:47;39.87;;;14.50;;
16954;SDS011;8594;52.052;8.354;2023-03-03T12:58:22;42.90;;;15.20;;
16954;SDS011;8594;52.052;8.354;2023-03-03T13:01:05;38.97;;;14.17;;
16954;SDS011;8594;52.052;8.354;2023-03-03T13:03:55;38.27;;;13.70;;
16954;SDS011;8594;52.052;8.354;2023-03-03T13:06:30;36.53;;;15.47;;
16954;SDS011;8594;52.052;8.354;2023-03-03T13:09:08;36.63;;;13.47;;
16954;SDS011;8594;52.052;8.354;2023-03-03T13:11:53;35.43;;;13.57;;
16954;SDS011;8594;52.052;8.354;2023-03-03T13:14:34;37.73;;;13.67;;
16954;SDS011;8594;52.052;8.354;2023-03-03T13:17:14;36.53;;;13.90;;
16954;SDS011;8594;52.052;8.354;2023-03-03T13:19:49;37.70;;;13.67;;
16954;SDS011;8594;52.052;8.354;2023-03-03T13:22:30;36.23;;;13.77;;
16954;SDS011;8594;52.052;8.354;2023-03-03T13:25:13;31.80;;;12.47;;
16954;SDS011;8594;52.052;8.354;2023-03-03T13:28:10;34.60;;;12.97;;
16954;SDS011;8594;52.052;8.354;2023-03-03T13:30:48;32.23;;;12.83;;
16954;SDS011;8594;52.052;8.354;2023-03-03T13:33:29;34.40;;;13.00;;
16954;SDS011;8594;52.052;8.354;2023-03-03T13:36:00;35.47;;;13.07;;
16954;SDS011;8594;52.052;8.354;2023-03-03T13:38:34;31.67;;;12.27;;
16954;SDS011;8594;52.052;8.354;2023-03-03T13:41:13;31.40;;;11.43;;
16954;SDS011;8594;52.052;8.354;2023-03-03T13:43:49;32.20;;;12.77;;
16954;SDS011;8594;52.052;8.354;2023-03-03T13:46:25;24.07;;;11.10;;
16954;SDS011;8594;52.052;8.354;2023-03-03T13:49:18;29.23;;;11.63;;
16954;SDS011;8594;52.052;8.354;2023-03-03T13:52:03;31.03;;;12.27;;
16954;SDS011;8594;52.052;8.354;2023-03-03T13:54:44;31.80;;;12.13;;
16954;SDS011;8594;52.052;8.354;2023-03-03T13:57:46;30.67;;;11.10;;
16954;SDS011;8594;52.052;8.354;2023-03-03T14:00:29;27.57;;;11.40;;
16954;SDS011;8594;52.052;8.354;2023-03-03T14:03:14;33.40;;;12.30;;
16954;SDS011;8594;52.052;8.354;2023-03-03T14:06:02;31.63;;;11.83;;
16954;SDS011;8594;52.052;8.354;2023-03-03T14:11:37;33.33;;;12.00;;
16954;SDS011;8594;52.052;8.354;2023-03-03T14:14:18;36.57;;;12.40;;
16954;SDS011;8594;52.052;8.354;2023-03-03T14:17:07;31.07;;;12.30;;
16954;SDS011;8594;52.052;8.354;2023-03-03T14:19:45;27.67;;;12.40;;
16954;SDS011;8594;52.052;8.354;2023-03-03T14:22:17;29.53;;;12.43;;
16954;SDS011;8594;52.052;8.354;2023-03-03T14:24:55;35.60;;;13.17;;
16954;SDS011;8594;52.052;8.354;2023-03-03T14:27:33;27.07;;;11.47;;
16954;SDS011;8594;52.052;8.354;2023-03-03T14:33:20;32.10;;;12.37;;
16954;SDS011;8594;52.052;8.354;2023-03-03T14:36:00;30.43;;;12.40;;
16954;SDS011;8594;52.052;8.354;2023-03-03T14:38:49;32.70;;;13.50;;
16954;SDS011;8594;52.052;8.354;2023-03-03T14:41:18;34.07;;;14.33;;
16954;SDS011;8594;52.052;8.354;2023-03-03T14:44:00;37.97;;;15.40;;
16954;SDS011;8594;52.052;8.354;2023-03-03T14:46:47;39.77;;;15.87;;
16954;SDS011;8594;52.052;8.354;2023-03-03T14:49:37;42.37;;;16.47;;
16954;SDS011;8594;52.052;8.354;2023-03-03T14:52:10;40.83;;;15.03;;
16954;SDS011;8594;52.052;8.354;2023-03-03T14:54:47;40.87;;;17.37;;
16954;SDS011;8594;52.052;8.354;2023-03-03T14:57:17;49.80;;;17.20;;
16954;SDS011;8594;52.052;8.354;2023-03-03T14:59:57;51.90;;;19.03;;
16954;SDS011;8594;52.052;8.354;2023-03-03T15:02:34;38.33;;;15.40;;
16954;SDS011;8594;52.052;8.354;2023-03-03T15:05:21;43.67;;;16.13;;
16954;SDS011;8594;52.052;8.354;2023-03-03T15:07:51;50.63;;;21.23;;
16954;SDS011;8594;52.052;8.354;2023-03-03T15:10:26;59.60;;;23.37;;
16954;SDS011;8594;52.052;8.354;2023-03-03T15:12:58;62.77;;;24.83;;
16954;SDS011;8594;52.052;8.354;2023-03-03T15:15:42;63.03;;;25.27;;
16954;SDS011;8594;52.052;8.354;2023-03-03T15:18:19;63.83;;;24.10;;
16954;SDS011;8594;52.052;8.354;2023-03-03T15:20:46;64.93;;;26.77;;
16954;SDS011;8594;52.052;8.354;2023-03-03T15:26:22;75.13;;;26.93;;
16954;SDS011;8594;52.052;8.354;2023-03-03T15:29:00;70.43;;;28.63;;
16954;SDS011;8594;52.052;8.354;2023-03-03T15:31:39;74.83;;;29.00;;
16954;SDS011;8594;52.052;8.354;2023-03-03T15:34:22;76.33;;;29.63;;
16954;SDS011;8594;52.052;8.354;2023-03-03T15:37:05;72.57;;;27.23;;